createdAt,value
2022-08-01T00:00:02.494Z,3.00
2022-08-01T00:02:29.851Z,3.00
2022-08-01T00:04:56.478Z,3.28
2022-08-01T00:07:23.279Z,2.92
2022-08-01T00:09:50.081Z,3.20
2022-08-01T00:12:16.726Z,3.40
2022-08-01T00:14:43.411Z,3.33
2022-08-01T00:17:10.139Z,3.22
2022-08-01T00:19:36.847Z,3.80
2022-08-01T00:22:03.664Z,3.47
2022-08-01T00:24:30.696Z,3.70
2022-08-01T00:26:57.317Z,3.80
2022-08-01T00:30:12.592Z,4.43
2022-08-01T00:32:10.802Z,4.13
2022-08-01T00:34:37.953Z,3.75
2022-08-01T00:37:04.587Z,3.60
2022-08-01T00:39:31.324Z,4.18
2022-08-01T00:41:59.940Z,4.38
2022-08-01T00:44:27.454Z,5.15
2022-08-01T00:46:54.119Z,5.13
2022-08-01T00:49:20.940Z,4.20
2022-08-01T05:26:39.235Z,4.80
2022-08-01T05:29:06.351Z,5.03
2022-08-01T05:31:35.175Z,4.40
2022-08-01T05:34:04.785Z,4.10
2022-08-01T05:36:31.555Z,3.83
2022-08-01T05:38:58.329Z,3.38
2022-08-01T05:41:25.155Z,3.00
2022-08-01T05:43:51.769Z,2.30
2022-08-01T05:46:18.762Z,2.38
2022-08-01T05:48:45.439Z,1.70
2022-08-01T05:51:12.095Z,2.17
2022-08-01T05:53:38.716Z,2.20
2022-08-01T05:56:05.951Z,2.10
2022-08-01T05:58:32.877Z,2.20
2022-08-01T06:00:59.719Z,1.73
2022-08-01T06:03:26.427Z,1.80
2022-08-01T06:05:53.966Z,1.73
2022-08-01T06:08:20.576Z,1.63
2022-08-01T06:10:47.373Z,1.45
2022-08-01T06:13:14.255Z,1.52
2022-08-01T06:15:41.304Z,1.23
2022-08-01T06:18:07.990Z,1.30
2022-08-01T06:20:34.750Z,0.98
2022-08-01T06:23:02.650Z,1.00
2022-08-01T06:25:48.701Z,1.00
2022-08-01T06:28:15.490Z,1.05
2022-08-01T06:30:42.145Z,0.90
2022-08-01T06:33:09.786Z,0.93
2022-08-01T06:35:36.833Z,0.98
2022-08-01T06:38:04.023Z,1.10
2022-08-01T06:40:30.915Z,0.82
2022-08-01T06:42:57.577Z,0.93
2022-08-01T06:45:25.780Z,0.90
2022-08-01T06:47:52.841Z,0.80
2022-08-01T06:50:19.886Z,1.10
2022-08-01T06:52:46.596Z,0.95
2022-08-01T06:55:13.452Z,0.82
2022-08-01T06:57:53.915Z,0.80
2022-08-01T07:00:25.469Z,0.80
2022-08-01T07:02:57.486Z,0.85
2022-08-01T07:05:24.460Z,0.95
2022-08-01T07:07:51.211Z,1.00
2022-08-01T07:10:18.315Z,1.00
2022-08-01T07:12:45.176Z,0.88
2022-08-01T07:15:12.909Z,1.00
2022-08-01T07:17:40.928Z,0.70
2022-08-01T07:20:12.486Z,0.80
2022-08-01T07:22:42.931Z,0.80
2022-08-01T07:25:10.117Z,0.90
2022-08-01T07:27:37.584Z,0.68
2022-08-01T07:30:06.193Z,0.70
2022-08-01T07:32:32.959Z,0.98
2022-08-01T07:34:59.615Z,0.70
2022-08-01T07:37:47.728Z,0.63
2022-08-01T07:40:14.430Z,0.70
2022-08-01T07:42:44.425Z,1.02
2022-08-01T07:45:12.117Z,0.95
2022-08-01T07:47:38.942Z,1.05
2022-08-01T07:50:07.246Z,0.98
2022-08-01T07:52:33.962Z,0.93
2022-08-01T07:55:00.760Z,0.95
2022-08-01T07:57:27.387Z,0.90
2022-08-01T07:59:54.086Z,1.10
2022-08-01T08:02:20.875Z,1.30
2022-08-01T08:04:49.255Z,1.00
2022-08-01T08:07:17.125Z,0.90
2022-08-01T08:09:43.848Z,1.00
2022-08-01T08:12:10.885Z,0.98
2022-08-01T08:14:37.667Z,0.90
2022-08-01T08:17:05.017Z,1.50
2022-08-01T08:19:38.198Z,1.20
2022-08-01T08:22:06.344Z,1.42
2022-08-01T08:24:33.154Z,1.45
2022-08-01T08:27:01.571Z,1.73
2022-08-01T08:29:33.469Z,1.80
2022-08-01T08:32:01.214Z,1.90
2022-08-01T08:34:29.919Z,1.80
2022-08-01T08:36:59.011Z,2.08
2022-08-01T08:39:26.396Z,2.08
2022-08-01T08:41:53.163Z,2.22
2022-08-01T08:44:21.095Z,2.28
2022-08-01T08:46:51.917Z,2.28
2022-08-01T08:49:27.480Z,2.20
2022-08-01T08:52:04.413Z,2.30
2022-08-01T08:54:33.308Z,2.90
2022-08-01T08:57:01.803Z,2.30
2022-08-01T08:59:29.384Z,2.78
2022-08-01T09:01:57.634Z,2.97
2022-08-01T09:04:26.838Z,2.40
2022-08-01T09:06:54.928Z,2.50
2022-08-01T09:09:21.617Z,2.58
2022-08-01T09:11:56.748Z,2.78
2022-08-01T09:14:26.391Z,2.55
2022-08-01T09:17:04.854Z,2.35
2022-08-01T09:19:48.452Z,2.33
2022-08-01T09:22:19.335Z,2.60
2022-08-01T09:25:18.473Z,2.40
2022-08-01T09:27:46.276Z,3.15
2022-08-01T09:30:17.159Z,2.70
2022-08-01T09:33:01.832Z,2.50
2022-08-01T09:35:43.621Z,2.30
2022-08-01T09:38:22.012Z,2.25
2022-08-01T09:41:01.882Z,2.30
2022-08-01T09:43:31.929Z,2.00
2022-08-01T09:46:00.633Z,2.35
2022-08-01T09:48:29.504Z,2.30
2022-08-01T09:51:01.322Z,2.78
2022-08-01T09:53:43.509Z,2.00
2022-08-01T09:56:18.418Z,2.40
2022-08-01T09:59:01.454Z,1.58
2022-08-01T10:01:49.498Z,1.80
2022-08-01T10:04:25.217Z,1.85
2022-08-01T10:06:55.586Z,1.70
2022-08-01T10:09:39.884Z,1.45
2022-08-01T10:12:15.289Z,1.40
2022-08-01T10:14:46.177Z,1.77
2022-08-01T10:17:18.345Z,1.58
2022-08-01T10:19:47.695Z,1.65
2022-08-01T10:22:17.755Z,2.15
2022-08-01T10:24:48.868Z,2.28
2022-08-01T10:27:24.344Z,1.90
2022-08-01T10:30:16.830Z,1.80
2022-08-01T10:32:52.941Z,1.83
2022-08-01T10:35:47.502Z,2.05
2022-08-01T10:38:10.858Z,1.88
2022-08-01T10:40:42.355Z,2.20
2022-08-01T10:43:11.702Z,1.92
2022-08-01T10:45:38.473Z,1.63
2022-08-01T10:48:20.882Z,1.80
2022-08-01T10:50:50.655Z,1.60
2022-08-01T10:53:23.961Z,1.52
2022-08-01T10:56:01.368Z,1.70
2022-08-01T10:58:42.744Z,2.00
2022-08-01T11:01:31.442Z,1.83
2022-08-01T11:04:17.436Z,1.65
2022-08-01T11:07:12.803Z,1.38
2022-08-01T11:09:51.449Z,1.30
2022-08-01T11:12:24.826Z,1.33
2022-08-01T11:15:03.017Z,1.80
2022-08-01T11:17:54.596Z,1.30
2022-08-01T11:20:34.137Z,1.30
2022-08-01T11:23:01.989Z,1.40
2022-08-01T11:26:03.600Z,1.42
2022-08-01T11:28:31.998Z,1.45
2022-08-01T11:31:14.244Z,1.92
2022-08-01T11:33:41.474Z,1.70
2022-08-01T11:36:11.570Z,1.48
2022-08-01T11:38:45.746Z,1.35
2022-08-01T11:41:15.538Z,2.45
2022-08-01T11:44:02.474Z,1.80
2022-08-01T11:47:09.820Z,1.48
2022-08-01T11:49:48.949Z,2.00
2022-08-01T11:52:37.144Z,2.33
2022-08-01T11:55:10.100Z,2.20
2022-08-01T11:57:39.300Z,1.60
2022-08-01T12:00:17.866Z,1.90
2022-08-01T12:02:46.823Z,1.67
2022-08-01T12:05:18.949Z,1.80
2022-08-01T12:07:47.331Z,1.80
2022-08-01T12:10:19.106Z,1.73
2022-08-01T12:12:50.038Z,2.08
2022-08-01T12:15:18.098Z,1.67
2022-08-01T12:17:58.122Z,1.42
2022-08-01T12:20:31.186Z,1.40
2022-08-01T12:23:01.661Z,1.50
2022-08-01T12:25:28.766Z,1.90
2022-08-01T12:27:56.764Z,1.20
2022-08-01T12:30:25.515Z,1.10
2022-08-01T12:32:53.519Z,1.48
2022-08-01T12:35:26.631Z,1.30
2022-08-01T12:38:02.089Z,1.50
2022-08-01T12:40:31.316Z,1.40
2022-08-01T12:43:00.966Z,1.27
2022-08-01T12:45:56.511Z,1.17
2022-08-01T12:48:25.178Z,1.00
2022-08-01T12:50:53.875Z,1.05
2022-08-01T12:53:22.184Z,1.13
2022-08-01T12:55:59.039Z,0.80
2022-08-01T12:58:34.481Z,1.30
2022-08-01T13:01:10.491Z,0.70
2022-08-01T13:03:38.342Z,0.90
2022-08-01T13:06:16.827Z,0.93
2022-08-01T13:08:44.951Z,0.80
2022-08-01T13:11:17.641Z,0.70
2022-08-01T13:13:49.900Z,0.90
2022-08-01T13:16:31.035Z,0.85
2022-08-01T13:19:05.948Z,0.60
2022-08-01T13:21:52.014Z,0.73
2022-08-01T13:24:26.013Z,0.82
2022-08-01T13:26:56.846Z,0.73
2022-08-01T13:29:32.609Z,0.68
2022-08-01T13:32:00.671Z,0.80
2022-08-01T13:34:35.100Z,1.00
2022-08-01T13:37:02.767Z,0.90
2022-08-01T13:39:41.775Z,1.00
2022-08-01T13:42:10.290Z,0.50
2022-08-01T13:44:37.321Z,0.80
2022-08-01T13:47:15.356Z,0.80
2022-08-01T13:49:43.368Z,0.93
2022-08-01T13:52:11.256Z,0.70
2022-08-01T13:54:38.212Z,0.80
2022-08-01T13:57:05.241Z,1.02
2022-08-01T13:59:32.405Z,0.93
2022-08-01T14:01:59.336Z,0.80
2022-08-01T14:04:26.278Z,0.80
2022-08-01T14:06:53.330Z,1.33
2022-08-01T14:09:23.754Z,0.90
2022-08-01T14:11:51.210Z,0.80
2022-08-01T14:14:18.154Z,0.73
2022-08-01T14:16:48.070Z,0.85
2022-08-01T14:19:17.578Z,0.80
2022-08-01T14:21:46.258Z,1.08
2022-08-01T14:24:13.094Z,0.80
2022-08-01T14:26:41.194Z,0.90
2022-08-01T14:29:08.223Z,1.10
2022-08-01T14:31:35.266Z,0.70
2022-08-01T14:34:02.640Z,0.80
2022-08-01T14:36:31.817Z,0.70
2022-08-01T14:39:05.315Z,0.65
2022-08-01T14:41:33.803Z,0.38
2022-08-01T14:44:00.855Z,0.70
2022-08-01T14:46:28.013Z,0.70
2022-08-01T14:49:01.597Z,0.65
2022-08-01T14:51:28.646Z,0.57
2022-08-01T14:53:55.485Z,0.60
2022-08-01T14:56:22.631Z,0.60
2022-08-01T14:58:49.777Z,0.38
2022-08-01T15:01:17.484Z,0.77
2022-08-01T15:03:44.789Z,0.70
2022-08-01T15:06:12.586Z,0.60
2022-08-01T15:08:39.837Z,0.65
2022-08-01T15:11:07.069Z,0.98
2022-08-01T15:13:36.247Z,0.85
2022-08-01T15:16:05.264Z,0.50
2022-08-01T15:18:34.221Z,1.05
2022-08-01T15:21:01.396Z,0.70
2022-08-01T15:23:28.436Z,0.80
2022-08-01T15:25:55.395Z,0.45
2022-08-01T15:28:22.546Z,0.75
2022-08-01T15:30:49.379Z,0.70
2022-08-01T15:33:16.326Z,0.52
2022-08-01T15:35:43.713Z,0.85
2022-08-01T15:38:10.615Z,0.80
2022-08-01T15:40:37.448Z,0.60
2022-08-01T15:43:04.821Z,0.60
2022-08-01T15:45:46.845Z,0.85
2022-08-01T15:48:14.915Z,0.50
2022-08-01T15:50:41.736Z,1.25
2022-08-01T15:53:08.875Z,0.95
2022-08-01T15:55:39.844Z,0.70
2022-08-01T15:58:08.130Z,0.70
2022-08-01T16:00:39.108Z,0.60
2022-08-01T16:03:07.303Z,0.40
2022-08-01T16:05:40.776Z,0.60
2022-08-01T16:08:11.743Z,0.55
2022-08-01T16:10:38.582Z,0.52
2022-08-01T16:13:07.309Z,0.40
2022-08-01T16:15:36.488Z,0.88
2022-08-01T16:18:06.086Z,0.50
2022-08-01T16:20:33.435Z,0.60
2022-08-01T16:23:00.384Z,0.57
2022-08-01T16:25:27.521Z,0.52
2022-08-01T16:27:54.363Z,0.75
2022-08-01T16:30:21.320Z,0.80
2022-08-01T16:32:51.446Z,0.60
2022-08-01T16:35:36.239Z,0.68
2022-08-01T16:38:07.137Z,0.75
2022-08-01T16:40:34.934Z,0.70
2022-08-01T16:43:15.133Z,0.80
2022-08-01T16:45:43.225Z,0.70
2022-08-01T16:48:12.339Z,0.70
2022-08-01T16:50:39.576Z,0.70
2022-08-01T16:53:06.507Z,0.50
2022-08-01T16:55:49.696Z,0.52
2022-08-01T16:58:19.770Z,0.73
2022-08-01T17:00:56.419Z,0.52
2022-08-01T17:03:47.083Z,0.80
2022-08-01T17:06:12.223Z,0.88
2022-08-01T17:08:46.521Z,0.68
2022-08-01T17:11:14.746Z,1.17
2022-08-01T17:13:41.657Z,0.60
2022-08-01T17:16:09.423Z,1.25
2022-08-01T17:18:36.375Z,0.90
2022-08-01T17:21:03.408Z,1.10
2022-08-01T17:23:31.903Z,0.60
2022-08-01T17:25:59.983Z,0.60
2022-08-01T17:28:27.437Z,0.90
2022-08-01T17:30:54.466Z,1.10
2022-08-01T17:33:21.712Z,0.57
2022-08-01T17:35:48.660Z,0.75
2022-08-01T17:38:15.708Z,0.77
2022-08-01T17:40:44.300Z,1.30
2022-08-01T17:43:11.243Z,0.75
2022-08-01T17:45:50.405Z,0.85
2022-08-01T17:48:19.472Z,0.57
2022-08-01T17:50:47.864Z,1.10
2022-08-01T17:53:21.093Z,0.77
2022-08-01T17:55:54.001Z,1.00
2022-08-01T17:58:36.642Z,0.65
2022-08-01T18:01:14.480Z,0.77
2022-08-01T18:03:41.913Z,0.70
2022-08-01T18:06:14.421Z,0.65
2022-08-01T18:08:43.053Z,1.17
2022-08-01T18:11:10.401Z,0.65
2022-08-01T18:13:40.635Z,0.68
2022-08-01T18:16:09.421Z,0.77
2022-08-01T18:18:36.888Z,0.90
2022-08-01T18:21:04.751Z,0.80
2022-08-01T18:23:33.823Z,0.80
2022-08-01T18:26:02.440Z,0.95
2022-08-01T18:28:37.991Z,0.70
2022-08-01T18:31:08.908Z,0.73
2022-08-01T18:33:36.483Z,1.10
2022-08-01T18:36:04.606Z,0.70
2022-08-01T18:38:35.247Z,0.70
2022-08-01T18:41:06.117Z,0.70
2022-08-01T18:43:32.793Z,0.77
2022-08-01T18:46:01.241Z,0.95
2022-08-01T18:48:28.070Z,0.70
2022-08-01T18:50:54.904Z,0.70
2022-08-01T18:53:23.934Z,0.70
2022-08-01T18:55:50.998Z,0.90
2022-08-01T18:58:18.446Z,0.90
2022-08-01T19:00:45.181Z,0.93
2022-08-01T19:03:13.553Z,0.80
2022-08-01T19:05:40.194Z,0.60
2022-08-01T19:08:08.215Z,0.77
2022-08-01T19:10:40.134Z,0.80
2022-08-01T19:13:07.824Z,0.90
2022-08-01T19:15:35.577Z,1.10
2022-08-01T19:18:03.221Z,1.00
2022-08-01T19:20:30.332Z,1.00
2022-08-01T19:22:57.083Z,0.85
2022-08-01T19:25:24.367Z,0.80
2022-08-01T19:27:51.367Z,0.70
2022-08-01T19:30:19.061Z,0.80
2022-08-01T19:32:47.494Z,0.95
2022-08-01T19:35:16.693Z,0.65
2022-08-01T19:37:47.357Z,1.02
2022-08-01T19:40:27.075Z,0.85
2022-08-01T19:42:57.200Z,0.90
2022-08-01T19:45:24.818Z,0.70
2022-08-01T19:47:56.539Z,0.70
2022-08-01T19:50:24.509Z,0.60
2022-08-01T19:52:52.691Z,0.90
2022-08-01T19:55:19.588Z,0.85
2022-08-01T19:57:59.221Z,1.02
2022-08-01T20:00:38.708Z,0.80
2022-08-01T20:03:07.348Z,1.00
2022-08-01T20:05:36.303Z,1.00
2022-08-01T20:08:03.652Z,0.77
2022-08-01T20:10:32.122Z,0.95
2022-08-01T20:12:59.000Z,1.20
2022-08-01T20:15:25.825Z,1.10
2022-08-01T20:17:52.540Z,1.10
2022-08-01T20:20:19.675Z,0.80
2022-08-01T20:22:49.457Z,0.88
2022-08-01T20:25:18.672Z,0.98
2022-08-01T20:27:47.616Z,0.80
2022-08-01T20:30:15.170Z,0.80
2022-08-01T20:32:42.226Z,1.10
2022-08-01T20:35:09.616Z,0.85
2022-08-01T20:38:05.489Z,1.10
2022-08-01T20:40:30.155Z,1.38
2022-08-01T20:42:57.735Z,1.23
2022-08-01T20:45:27.140Z,0.98
2022-08-01T20:47:55.992Z,1.13
2022-08-01T20:50:54.291Z,1.08
2022-08-01T20:53:23.821Z,0.80
2022-08-01T20:55:59.408Z,0.98
2022-08-01T20:58:58.711Z,0.93
2022-08-01T21:01:29.383Z,0.90
2022-08-01T21:04:41.051Z,1.13
2022-08-01T21:07:24.643Z,0.90
2022-08-01T21:10:04.485Z,0.80
2022-08-01T21:12:44.998Z,0.77
2022-08-01T21:16:04.244Z,1.00
2022-08-01T21:18:40.122Z,1.10
2022-08-01T21:21:16.222Z,1.20
2022-08-01T21:24:05.622Z,0.80
2022-08-01T21:26:36.297Z,1.20
2022-08-01T21:29:07.493Z,1.15
2022-08-01T21:31:40.563Z,1.00
2022-08-01T21:34:10.673Z,1.05
2022-08-01T21:36:37.759Z,0.85
2022-08-01T21:39:09.550Z,0.90
2022-08-01T21:42:04.630Z,1.10
2022-08-01T21:44:28.802Z,1.20
2022-08-01T21:47:00.642Z,0.80
